sensor_id;sensor_type;location;lat;lon;timestamp;temperature;humidity
10042;DHT22;5061;49.068;12.058;2023-02-01T00:02:21;2.80;99.90
10042;DHT22;5061;49.068;12.058;2023-02-01T00:05:42;2.80;99.90
10042;DHT22;5061;49.068;12.058;2023-02-01T00:09:02;2.80;99.90
10042;DHT22;5061;49.068;12.058;2023-02-01T00:12:23;2.80;99.90
10042;DHT22;5061;49.068;12.058;2023-02-01T00:15:43;2.80;99.90
10042;DHT22;5061;49.068;12.058;2023-02-01T00:19:09;2.80;99.90
10042;DHT22;5061;49.068;12.058;2023-02-01T00:22:30;2.80;99.90
10042;DHT22;5061;49.068;12.058;2023-02-01T00:25:50;2.80;99.90
10042;DHT22;5061;49.068;12.058;2023-02-01T00:29:14;2.80;99.90
10042;DHT22;5061;49.068;12.058;2023-02-01T00:32:35;2.80;99.90
10042;DHT22;5061;49.068;12.058;2023-02-01T00:36:00;2.80;99.90
10042;DHT22;5061;49.068;12.058;2023-02-01T00:39:21;2.80;99.90
10042;DHT22;5061;49.068;12.058;2023-02-01T00:42:41;2.80;99.90
10042;DHT22;5061;49.068;12.058;2023-02-01T00:46:02;2.80;99.90
10042;DHT22;5061;49.068;12.058;2023-02-01T00:49:23;2.90;99.90
10042;DHT22;5061;49.068;12.058;2023-02-01T00:52:44;2.80;99.90
10042;DHT22;5061;49.068;12.058;2023-02-01T00:56:05;2.80;99.90
10042;DHT22;5061;49.068;12.058;2023-02-01T00:59:26;2.80;99.90
10042;DHT22;5061;49.068;12.058;2023-02-01T01:02:46;2.80;99.90
10042;DHT22;5061;49.068;12.058;2023-02-01T01:06:15;2.80;99.90
10042;DHT22;5061;49.068;12.058;2023-02-01T01:09:36;2.80;99.90
10042;DHT22;5061;49.068;12.058;2023-02-01T01:12:57;2.80;99.90
10042;DHT22;5061;49.068;12.058;2023-02-01T01:16:19;2.80;99.90
10042;DHT22;5061;49.068;12.058;2023-02-01T01:19:40;2.70;99.90
10042;DHT22;5061;49.068;12.058;2023-02-01T01:23:01;2.80;99.90
10042;DHT22;5061;49.068;12.058;2023-02-01T01:26:25;2.80;99.90
10042;DHT22;5061;49.068;12.058;2023-02-01T01:29:46;2.80;99.90
10042;DHT22;5061;49.068;12.058;2023-02-01T01:33:07;2.70;99.90
10042;DHT22;5061;49.068;12.058;2023-02-01T01:36:28;2.80;99.90
10042;DHT22;5061;49.068;12.058;2023-02-01T01:39:48;2.70;99.90
10042;DHT22;5061;49.068;12.058;2023-02-01T01:43:16;2.70;99.90
10042;DHT22;5061;49.068;12.058;2023-02-01T01:46:38;2.80;99.90
10042;DHT22;5061;49.068;12.058;2023-02-01T01:50:02;2.70;99.90
10042;DHT22;5061;49.068;12.058;2023-02-01T01:53:27;2.70;99.90
10042;DHT22;5061;49.068;12.058;2023-02-01T01:56:51;2.70;99.90
10042;DHT22;5061;49.068;12.058;2023-02-01T02:00:14;2.80;99.90
10042;DHT22;5061;49.068;12.058;2023-02-01T02:03:42;2.80;99.90
10042;DHT22;5061;49.068;12.058;2023-02-01T02:07:14;2.80;99.90
10042;DHT22;5061;49.068;12.058;2023-02-01T02:10:36;2.80;99.90
10042;DHT22;5061;49.068;12.058;2023-02-01T02:14:17;2.80;99.90
10042;DHT22;5061;49.068;12.058;2023-02-01T02:17:58;2.80;99.90
10042;DHT22;5061;49.068;12.058;2023-02-01T02:42:34;2.90;99.90
10042;DHT22;5061;49.068;12.058;2023-02-01T02:46:25;3.00;99.90
10042;DHT22;5061;49.068;12.058;2023-02-01T02:50:29;3.00;99.90
10042;DHT22;5061;49.068;12.058;2023-02-01T02:54:21;3.00;99.90
10042;DHT22;5061;49.068;12.058;2023-02-01T02:58:03;3.00;99.90
10042;DHT22;5061;49.068;12.058;2023-02-01T03:01:43;2.90;99.90
10042;DHT22;5061;49.068;12.058;2023-02-01T03:05:22;2.90;99.90
10042;DHT22;5061;49.068;12.058;2023-02-01T03:08:43;2.90;99.90
10042;DHT22;5061;49.068;12.058;2023-02-01T03:12:09;2.90;99.90
10042;DHT22;5061;49.068;12.058;2023-02-01T03:19:50;2.90;99.90
10042;DHT22;5061;49.068;12.058;2023-02-01T03:23:14;2.90;99.90
10042;DHT22;5061;49.068;12.058;2023-02-01T03:26:38;2.90;99.90
10042;DHT22;5061;49.068;12.058;2023-02-01T03:30:11;2.90;99.90
10042;DHT22;5061;49.068;12.058;2023-02-01T03:33:33;2.90;99.90
10042;DHT22;5061;49.068;12.058;2023-02-01T03:36:59;2.90;99.90
10042;DHT22;5061;49.068;12.058;2023-02-01T03:40:22;2.90;99.90
10042;DHT22;5061;49.068;12.058;2023-02-01T03:44:14;2.90;99.90
10042;DHT22;5061;49.068;12.058;2023-02-01T03:47:40;2.90;99.90
10042;DHT22;5061;49.068;12.058;2023-02-01T03:51:03;2.90;99.90
10042;DHT22;5061;49.068;12.058;2023-02-01T03:54:26;3.00;99.90
10042;DHT22;5061;49.068;12.058;2023-02-01T03:58:15;3.00;99.90
10042;DHT22;5061;49.068;12.058;2023-02-01T04:01:36;3.00;99.90
10042;DHT22;5061;49.068;12.058;2023-02-01T04:04:57;3.00;99.90
10042;DHT22;5061;49.068;12.058;2023-02-01T04:08:21;3.00;99.90
10042;DHT22;5061;49.068;12.058;2023-02-01T04:11:42;2.90;99.90
10042;DHT22;5061;49.068;12.058;2023-02-01T04:15:03;2.90;99.90
10042;DHT22;5061;49.068;12.058;2023-02-01T04:18:24;2.90;99.90
10042;DHT22;5061;49.068;12.058;2023-02-01T04:21:45;3.00;99.90
10042;DHT22;5061;49.068;12.058;2023-02-01T04:25:06;2.90;99.90
10042;DHT22;5061;49.068;12.058;2023-02-01T04:28:28;2.90;99.90
10042;DHT22;5061;49.068;12.058;2023-02-01T04:31:49;3.00;99.90
10042;DHT22;5061;49.068;12.058;2023-02-01T04:35:10;3.00;99.90
10042;DHT22;5061;49.068;12.058;2023-02-01T04:38:32;3.00;99.90
10042;DHT22;5061;49.068;12.058;2023-02-01T04:41:52;3.00;99.90
10042;DHT22;5061;49.068;12.058;2023-02-01T04:45:13;3.10;99.90
10042;DHT22;5061;49.068;12.058;2023-02-01T04:48:33;3.10;99.90
10042;DHT22;5061;49.068;12.058;2023-02-01T04:51:54;3.10;99.90
10042;DHT22;5061;49.068;12.058;2023-02-01T04:55:14;3.10;99.90
10042;DHT22;5061;49.068;12.058;2023-02-01T04:58:35;3.20;99.90
10042;DHT22;5061;49.068;12.058;2023-02-01T05:01:56;3.20;99.90
10042;DHT22;5061;49.068;12.058;2023-02-01T05:05:16;3.20;99.90
10042;DHT22;5061;49.068;12.058;2023-02-01T05:08:37;3.20;99.90
10042;DHT22;5061;49.068;12.058;2023-02-01T05:11:58;3.20;99.90
10042;DHT22;5061;49.068;12.058;2023-02-01T05:15:36;3.20;99.90
10042;DHT22;5061;49.068;12.058;2023-02-01T05:18:57;3.20;99.90
10042;DHT22;5061;49.068;12.058;2023-02-01T05:22:18;3.20;99.90
10042;DHT22;5061;49.068;12.058;2023-02-01T05:25:38;3.20;99.90
10042;DHT22;5061;49.068;12.058;2023-02-01T05:28:59;3.20;99.90
10042;DHT22;5061;49.068;12.058;2023-02-01T05:32:20;3.20;99.90
10042;DHT22;5061;49.068;12.058;2023-02-01T05:35:40;3.20;99.90
10042;DHT22;5061;49.068;12.058;2023-02-01T05:39:01;3.20;99.90
10042;DHT22;5061;49.068;12.058;2023-02-01T05:42:21;3.30;99.90
10042;DHT22;5061;49.068;12.058;2023-02-01T05:45:42;3.30;99.90
10042;DHT22;5061;49.068;12.058;2023-02-01T05:49:04;3.30;99.90
10042;DHT22;5061;49.068;12.058;2023-02-01T05:52:25;3.30;99.90
10042;DHT22;5061;49.068;12.058;2023-02-01T05:55:45;3.30;99.90
10042;DHT22;5061;49.068;12.058;2023-02-01T05:59:10;3.30;99.90
10042;DHT22;5061;49.068;12.058;2023-02-01T06:02:31;3.30;99.90
10042;DHT22;5061;49.068;12.058;2023-02-01T06:05:51;3.30;99.90
10042;DHT22;5061;49.068;12.058;2023-02-01T06:09:12;3.30;99.90
10042;DHT22;5061;49.068;12.058;2023-02-01T06:12:32;3.30;99.90
10042;DHT22;5061;49.068;12.058;2023-02-01T06:15:53;3.20;99.90
10042;DHT22;5061;49.068;12.058;2023-02-01T06:19:14;3.20;99.90
10042;DHT22;5061;49.068;12.058;2023-02-01T06:22:35;3.20;99.90
10042;DHT22;5061;49.068;12.058;2023-02-01T06:26:01;3.20;99.90
10042;DHT22;5061;49.068;12.058;2023-02-01T06:29:22;3.10;99.90
10042;DHT22;5061;49.068;12.058;2023-02-01T06:32:43;3.10;99.90
10042;DHT22;5061;49.068;12.058;2023-02-01T06:36:05;3.10;99.90
10042;DHT22;5061;49.068;12.058;2023-02-01T06:39:26;3.10;99.90
10042;DHT22;5061;49.068;12.058;2023-02-01T06:42:48;3.00;99.90
10042;DHT22;5061;49.068;12.058;2023-02-01T06:46:11;3.10;99.90
10042;DHT22;5061;49.068;12.058;2023-02-01T06:49:32;3.00;99.90
10042;DHT22;5061;49.068;12.058;2023-02-01T06:52:53;3.00;99.90
10042;DHT22;5061;49.068;12.058;2023-02-01T06:56:13;3.00;99.90
10042;DHT22;5061;49.068;12.058;2023-02-01T06:59:34;3.00;99.90
10042;DHT22;5061;49.068;12.058;2023-02-01T07:02:55;3.00;99.90
10042;DHT22;5061;49.068;12.058;2023-02-01T07:06:18;3.00;99.90
10042;DHT22;5061;49.068;12.058;2023-02-01T07:09:39;3.00;99.90
10042;DHT22;5061;49.068;12.058;2023-02-01T07:12:59;3.10;99.90
10042;DHT22;5061;49.068;12.058;2023-02-01T07:16:20;3.10;99.90
10042;DHT22;5061;49.068;12.058;2023-02-01T07:19:41;3.10;99.90
10042;DHT22;5061;49.068;12.058;2023-02-01T07:23:01;3.10;99.90
10042;DHT22;5061;49.068;12.058;2023-02-01T07:26:22;3.10;99.90
10042;DHT22;5061;49.068;12.058;2023-02-01T07:29:43;3.10;99.90
10042;DHT22;5061;49.068;12.058;2023-02-01T07:33:03;3.10;99.90
10042;DHT22;5061;49.068;12.058;2023-02-01T07:36:24;3.00;99.90
10042;DHT22;5061;49.068;12.058;2023-02-01T07:39:45;3.00;99.90
10042;DHT22;5061;49.068;12.058;2023-02-01T07:43:05;3.00;99.90
10042;DHT22;5061;49.068;12.058;2023-02-01T07:46:29;2.90;99.90
10042;DHT22;5061;49.068;12.058;2023-02-01T07:49:49;2.90;99.90
10042;DHT22;5061;49.068;12.058;2023-02-01T07:53:10;2.80;99.90
10042;DHT22;5061;49.068;12.058;2023-02-01T07:56:31;2.80;99.90
10042;DHT22;5061;49.068;12.058;2023-02-01T07:59:51;2.80;99.90
10042;DHT22;5061;49.068;12.058;2023-02-01T08:03:30;2.90;99.90
10042;DHT22;5061;49.068;12.058;2023-02-01T08:06:51;2.90;99.90
10042;DHT22;5061;49.068;12.058;2023-02-01T08:10:11;2.90;99.90
10042;DHT22;5061;49.068;12.058;2023-02-01T08:13:34;2.90;99.90
10042;DHT22;5061;49.068;12.058;2023-02-01T08:16:55;2.90;99.90
10042;DHT22;5061;49.068;12.058;2023-02-01T08:20:17;2.90;99.90
10042;DHT22;5061;49.068;12.058;2023-02-01T08:23:38;2.90;99.90
10042;DHT22;5061;49.068;12.058;2023-02-01T08:27:01;3.00;99.90
10042;DHT22;5061;49.068;12.058;2023-02-01T08:30:22;3.00;99.90
10042;DHT22;5061;49.068;12.058;2023-02-01T08:33:47;3.00;99.90
10042;DHT22;5061;49.068;12.058;2023-02-01T08:37:08;3.10;99.90
10042;DHT22;5061;49.068;12.058;2023-02-01T08:40:29;3.10;99.90
10042;DHT22;5061;49.068;12.058;2023-02-01T08:43:49;3.10;99.90
10042;DHT22;5061;49.068;12.058;2023-02-01T08:47:10;3.20;99.90
10042;DHT22;5061;49.068;12.058;2023-02-01T08:50:31;3.10;99.90
10042;DHT22;5061;49.068;12.058;2023-02-01T08:53:52;3.20;99.90
10042;DHT22;5061;49.068;12.058;2023-02-01T08:57:13;3.20;99.90
10042;DHT22;5061;49.068;12.058;2023-02-01T09:00:33;3.20;99.90
10042;DHT22;5061;49.068;12.058;2023-02-01T09:03:54;3.20;99.90
10042;DHT22;5061;49.068;12.058;2023-02-01T09:07:14;3.20;99.90
10042;DHT22;5061;49.068;12.058;2023-02-01T09:10:37;3.20;99.90
10042;DHT22;5061;49.068;12.058;2023-02-01T09:13:57;3.30;99.90
10042;DHT22;5061;49.068;12.058;2023-02-01T09:17:18;3.30;99.90
10042;DHT22;5061;49.068;12.058;2023-02-01T09:20:38;3.40;99.90
10042;DHT22;5061;49.068;12.058;2023-02-01T09:23:59;3.40;99.90
10042;DHT22;5061;49.068;12.058;2023-02-01T09:27:20;3.50;99.90
10042;DHT22;5061;49.068;12.058;2023-02-01T09:30:40;3.50;99.90
10042;DHT22;5061;49.068;12.058;2023-02-01T09:34:01;3.50;99.90
10042;DHT22;5061;49.068;12.058;2023-02-01T09:37:22;3.50;99.90
10042;DHT22;5061;49.068;12.058;2023-02-01T09:40:46;3.60;99.90
10042;DHT22;5061;49.068;12.058;2023-02-01T09:47:35;3.50;99.90
10042;DHT22;5061;49.068;12.058;2023-02-01T09:50:58;3.50;99.90
10042;DHT22;5061;49.068;12.058;2023-02-01T09:54:23;3.50;99.90
10042;DHT22;5061;49.068;12.058;2023-02-01T10:01:21;3.50;99.90
10042;DHT22;5061;49.068;12.058;2023-02-01T10:04:44;3.50;99.90
10042;DHT22;5061;49.068;12.058;2023-02-01T10:15:35;3.50;99.90
10042;DHT22;5061;49.068;12.058;2023-02-01T10:19:17;3.50;99.90
10042;DHT22;5061;49.068;12.058;2023-02-01T10:22:44;3.50;99.90
10042;DHT22;5061;49.068;12.058;2023-02-01T10:26:13;3.40;99.90
10042;DHT22;5061;49.068;12.058;2023-02-01T10:29:39;3.40;99.90
10042;DHT22;5061;49.068;12.058;2023-02-01T10:33:19;3.40;99.90
10042;DHT22;5061;49.068;12.058;2023-02-01T10:36:52;3.40;99.90
10042;DHT22;5061;49.068;12.058;2023-02-01T10:40:23;3.40;99.90
10042;DHT22;5061;49.068;12.058;2023-02-01T10:43:46;3.50;99.90
10042;DHT22;5061;49.068;12.058;2023-02-01T10:47:10;3.60;99.90
10042;DHT22;5061;49.068;12.058;2023-02-01T10:50:58;3.60;99.90
10042;DHT22;5061;49.068;12.058;2023-02-01T10:54:20;3.70;99.90
10042;DHT22;5061;49.068;12.058;2023-02-01T10:57:41;3.70;99.90
10042;DHT22;5061;49.068;12.058;2023-02-01T11:01:07;3.70;99.90
10042;DHT22;5061;49.068;12.058;2023-02-01T11:04:33;3.60;99.90
10042;DHT22;5061;49.068;12.058;2023-02-01T11:07:56;3.60;99.90
10042;DHT22;5061;49.068;12.058;2023-02-01T11:11:17;3.60;99.90
10042;DHT22;5061;49.068;12.058;2023-02-01T11:14:39;3.60;99.90
10042;DHT22;5061;49.068;12.058;2023-02-01T11:18:18;3.60;99.90
10042;DHT22;5061;49.068;12.058;2023-02-01T11:21:39;3.70;99.90
10042;DHT22;5061;49.068;12.058;2023-02-01T11:25:08;3.80;99.90
10042;DHT22;5061;49.068;12.058;2023-02-01T11:28:32;3.80;99.90
10042;DHT22;5061;49.068;12.058;2023-02-01T11:31:56;3.80;99.90
10042;DHT22;5061;49.068;12.058;2023-02-01T11:35:20;3.90;99.90
10042;DHT22;5061;49.068;12.058;2023-02-01T11:38:46;4.00;99.90
10042;DHT22;5061;49.068;12.058;2023-02-01T11:42:17;4.00;99.90
10042;DHT22;5061;49.068;12.058;2023-02-01T11:45:38;4.10;99.90
10042;DHT22;5061;49.068;12.058;2023-02-01T11:53:02;4.20;99.90
10042;DHT22;5061;49.068;12.058;2023-02-01T12:03:55;4.40;99.90
10042;DHT22;5061;49.068;12.058;2023-02-01T12:19:04;4.80;99.90
10042;DHT22;5061;49.068;12.058;2023-02-01T12:40:32;5.00;99.90
10042;DHT22;5061;49.068;12.058;2023-02-01T12:44:00;5.00;99.90
10042;DHT22;5061;49.068;12.058;2023-02-01T12:48:17;5.00;99.90
10042;DHT22;5061;49.068;12.058;2023-02-01T12:51:36;5.00;99.90
10042;DHT22;5061;49.068;12.058;2023-02-01T12:55:03;5.10;99.90
10042;DHT22;5061;49.068;12.058;2023-02-01T12:58:59;5.00;99.90
10042;DHT22;5061;49.068;12.058;2023-02-01T13:02:27;5.00;99.90
10042;DHT22;5061;49.068;12.058;2023-02-01T13:05:58;5.00;99.90
10042;DHT22;5061;49.068;12.058;2023-02-01T13:09:41;4.80;99.90
10042;DHT22;5061;49.068;12.058;2023-02-01T13:16:56;4.60;99.90
10042;DHT22;5061;49.068;12.058;2023-02-01T13:20:37;4.50;99.90
10042;DHT22;5061;49.068;12.058;2023-02-01T13:24:00;4.40;99.90
10042;DHT22;5061;49.068;12.058;2023-02-01T13:27:21;4.40;99.90
10042;DHT22;5061;49.068;12.058;2023-02-01T13:34:53;4.30;99.90
10042;DHT22;5061;49.068;12.058;2023-02-01T13:38:42;4.30;99.90
10042;DHT22;5061;49.068;12.058;2023-02-01T13:46:10;4.30;99.90
10042;DHT22;5061;49.068;12.058;2023-02-01T13:49:39;4.30;99.90
10042;DHT22;5061;49.068;12.058;2023-02-01T13:53:11;4.30;99.90
10042;DHT22;5061;49.068;12.058;2023-02-01T13:56:41;4.30;99.90
10042;DHT22;5061;49.068;12.058;2023-02-01T14:00:28;4.30;99.90
10042;DHT22;5061;49.068;12.058;2023-02-01T14:03:49;4.30;99.90
10042;DHT22;5061;49.068;12.058;2023-02-01T14:07:21;4.30;99.90
10042;DHT22;5061;49.068;12.058;2023-02-01T14:17:37;4.30;99.90
10042;DHT22;5061;49.068;12.058;2023-02-01T14:24:37;4.30;99.90
10042;DHT22;5061;49.068;12.058;2023-02-01T14:27:57;4.30;99.90
10042;DHT22;5061;49.068;12.058;2023-02-01T14:34:54;4.30;99.90
10042;DHT22;5061;49.068;12.058;2023-02-01T14:38:20;4.30;99.90
10042;DHT22;5061;49.068;12.058;2023-02-01T14:41:46;4.30;99.90
10042;DHT22;5061;49.068;12.058;2023-02-01T14:48:44;4.20;99.90
10042;DHT22;5061;49.068;12.058;2023-02-01T14:52:11;4.20;99.90
10042;DHT22;5061;49.068;12.058;2023-02-01T14:58:59;4.20;99.90
10042;DHT22;5061;49.068;12.058;2023-02-01T15:02:25;4.20;99.90
10042;DHT22;5061;49.068;12.058;2023-02-01T15:05:55;4.20;99.90
10042;DHT22;5061;49.068;12.058;2023-02-01T15:09:20;4.20;99.90
10042;DHT22;5061;49.068;12.058;2023-02-01T15:12:45;4.20;99.90
10042;DHT22;5061;49.068;12.058;2023-02-01T15:16:14;4.20;99.90
10042;DHT22;5061;49.068;12.058;2023-02-01T15:19:35;4.20;99.90
10042;DHT22;5061;49.068;12.058;2023-02-01T15:23:01;4.20;99.90
10042;DHT22;5061;49.068;12.058;2023-02-01T15:26:29;4.20;99.90
10042;DHT22;5061;49.068;12.058;2023-02-01T15:29:50;4.20;99.90
10042;DHT22;5061;49.068;12.058;2023-02-01T15:36:34;4.10;99.90
10042;DHT22;5061;49.068;12.058;2023-02-01T15:47:18;4.10;99.90
10042;DHT22;5061;49.068;12.058;2023-02-01T15:50:40;4.10;99.90
10042;DHT22;5061;49.068;12.058;2023-02-01T15:54:06;4.10;99.90
10042;DHT22;5061;49.068;12.058;2023-02-01T16:01:04;4.10;99.90
10042;DHT22;5061;49.068;12.058;2023-02-01T16:04:28;4.10;99.90
10042;DHT22;5061;49.068;12.058;2023-02-01T16:08:15;4.10;99.90
10042;DHT22;5061;49.068;12.058;2023-02-01T16:11:49;4.10;99.90
10042;DHT22;5061;49.068;12.058;2023-02-01T16:15:12;4.00;99.90
10042;DHT22;5061;49.068;12.058;2023-02-01T16:18:33;4.10;99.90
10042;DHT22;5061;49.068;12.058;2023-02-01T16:21:56;4.10;99.90
10042;DHT22;5061;49.068;12.058;2023-02-01T16:25:18;4.10;99.90
10042;DHT22;5061;49.068;12.058;2023-02-01T16:28:39;4.10;99.90
10042;DHT22;5061;49.068;12.058;2023-02-01T16:32:00;4.10;99.90
10042;DHT22;5061;49.068;12.058;2023-02-01T16:35:25;4.10;99.90
10042;DHT22;5061;49.068;12.058;2023-02-01T16:38:47;4.10;99.90
10042;DHT22;5061;49.068;12.058;2023-02-01T16:42:13;4.20;99.90
10042;DHT22;5061;49.068;12.058;2023-02-01T16:45:36;4.10;99.90
10042;DHT22;5061;49.068;12.058;2023-02-01T16:48:59;4.10;99.90
10042;DHT22;5061;49.068;12.058;2023-02-01T16:52:23;4.10;99.90
10042;DHT22;5061;49.068;12.058;2023-02-01T16:55:44;4.20;99.90
10042;DHT22;5061;49.068;12.058;2023-02-01T16:59:06;4.20;99.90
10042;DHT22;5061;49.068;12.058;2023-02-01T17:02:28;4.10;99.90
10042;DHT22;5061;49.068;12.058;2023-02-01T17:05:54;4.10;99.90
10042;DHT22;5061;49.068;12.058;2023-02-01T17:09:16;4.10;99.90
10042;DHT22;5061;49.068;12.058;2023-02-01T17:12:36;4.20;99.90
10042;DHT22;5061;49.068;12.058;2023-02-01T17:16:04;4.10;99.90
10042;DHT22;5061;49.068;12.058;2023-02-01T17:19:26;4.10;99.90
10042;DHT22;5061;49.068;12.058;2023-02-01T17:22:47;4.10;99.90
10042;DHT22;5061;49.068;12.058;2023-02-01T17:26:10;4.10;99.90
10042;DHT22;5061;49.068;12.058;2023-02-01T17:29:32;4.20;99.90
10042;DHT22;5061;49.068;12.058;2023-02-01T17:32:52;4.10;99.90
10042;DHT22;5061;49.068;12.058;2023-02-01T17:36:16;4.20;99.90
10042;DHT22;5061;49.068;12.058;2023-02-01T17:39:37;4.20;99.90
10042;DHT22;5061;49.068;12.058;2023-02-01T17:43:22;4.20;99.90
10042;DHT22;5061;49.068;12.058;2023-02-01T17:46:43;4.20;99.90
10042;DHT22;5061;49.068;12.058;2023-02-01T17:50:09;4.20;99.90
10042;DHT22;5061;49.068;12.058;2023-02-01T17:53:30;4.20;99.90
10042;DHT22;5061;49.068;12.058;2023-02-01T17:57:01;4.20;99.90
10042;DHT22;5061;49.068;12.058;2023-02-01T18:00:23;4.10;99.90
10042;DHT22;5061;49.068;12.058;2023-02-01T18:03:44;4.10;99.90
10042;DHT22;5061;49.068;12.058;2023-02-01T18:07:07;4.20;99.90
10042;DHT22;5061;49.068;12.058;2023-02-01T18:10:28;4.20;99.90
10042;DHT22;5061;49.068;12.058;2023-02-01T18:13:50;4.20;99.90
10042;DHT22;5061;49.068;12.058;2023-02-01T18:17:12;4.20;99.90
10042;DHT22;5061;49.068;12.058;2023-02-01T18:20:33;4.20;99.90
10042;DHT22;5061;49.068;12.058;2023-02-01T18:23:55;4.20;99.90
10042;DHT22;5061;49.068;12.058;2023-02-01T18:27:16;4.20;99.90
10042;DHT22;5061;49.068;12.058;2023-02-01T18:30:36;4.20;99.90
10042;DHT22;5061;49.068;12.058;2023-02-01T18:33:58;4.20;99.90
10042;DHT22;5061;49.068;12.058;2023-02-01T18:37:19;4.20;99.90
10042;DHT22;5061;49.068;12.058;2023-02-01T18:40:48;4.20;99.90
10042;DHT22;5061;49.068;12.058;2023-02-01T18:44:14;4.20;99.90
10042;DHT22;5061;49.068;12.058;2023-02-01T18:47:34;4.20;99.90
10042;DHT22;5061;49.068;12.058;2023-02-01T18:50:55;4.20;99.90
10042;DHT22;5061;49.068;12.058;2023-02-01T18:54:17;4.20;99.90
10042;DHT22;5061;49.068;12.058;2023-02-01T18:57:38;4.20;99.90
10042;DHT22;5061;49.068;12.058;2023-02-01T19:01:06;4.20;99.90
10042;DHT22;5061;49.068;12.058;2023-02-01T19:04:31;4.20;99.90
10042;DHT22;5061;49.068;12.058;2023-02-01T19:07:51;4.20;99.90
10042;DHT22;5061;49.068;12.058;2023-02-01T19:11:12;4.20;99.90
10042;DHT22;5061;49.068;12.058;2023-02-01T19:14:35;4.20;99.90
10042;DHT22;5061;49.068;12.058;2023-02-01T19:17:56;4.30;99.90
10042;DHT22;5061;49.068;12.058;2023-02-01T19:21:17;4.30;99.90
10042;DHT22;5061;49.068;12.058;2023-02-01T19:24:38;4.30;99.90
10042;DHT22;5061;49.068;12.058;2023-02-01T19:27:59;4.30;99.90
10042;DHT22;5061;49.068;12.058;2023-02-01T19:31:19;4.40;99.90
10042;DHT22;5061;49.068;12.058;2023-02-01T19:34:40;4.40;99.90
10042;DHT22;5061;49.068;12.058;2023-02-01T19:38:01;4.40;99.90
10042;DHT22;5061;49.068;12.058;2023-02-01T19:41:21;4.40;99.90
10042;DHT22;5061;49.068;12.058;2023-02-01T19:44:42;4.40;99.90
10042;DHT22;5061;49.068;12.058;2023-02-01T19:48:03;4.40;99.90
10042;DHT22;5061;49.068;12.058;2023-02-01T19:51:29;4.40;99.90
10042;DHT22;5061;49.068;12.058;2023-02-01T19:54:50;4.40;99.90
10042;DHT22;5061;49.068;12.058;2023-02-01T19:58:10;4.40;99.90
10042;DHT22;5061;49.068;12.058;2023-02-01T20:01:31;4.40;99.90
10042;DHT22;5061;49.068;12.058;2023-02-01T20:04:53;4.40;99.90
10042;DHT22;5061;49.068;12.058;2023-02-01T20:08:13;4.40;99.90
10042;DHT22;5061;49.068;12.058;2023-02-01T20:11:34;4.40;99.90
10042;DHT22;5061;49.068;12.058;2023-02-01T20:14:54;4.40;99.90
10042;DHT22;5061;49.068;12.058;2023-02-01T20:18:15;4.30;99.90
10042;DHT22;5061;49.068;12.058;2023-02-01T20:21:37;4.30;99.90
10042;DHT22;5061;49.068;12.058;2023-02-01T20:24:58;4.30;99.90
10042;DHT22;5061;49.068;12.058;2023-02-01T20:28:19;4.30;99.90
10042;DHT22;5061;49.068;12.058;2023-02-01T20:31:40;4.20;99.90
10042;DHT22;5061;49.068;12.058;2023-02-01T20:35:00;4.20;99.90
10042;DHT22;5061;49.068;12.058;2023-02-01T20:38:21;4.20;99.90
10042;DHT22;5061;49.068;12.058;2023-02-01T20:41:42;4.20;99.90
10042;DHT22;5061;49.068;12.058;2023-02-01T20:45:03;4.20;99.90
10042;DHT22;5061;49.068;12.058;2023-02-01T20:48:25;4.20;99.90
10042;DHT22;5061;49.068;12.058;2023-02-01T20:51:45;4.30;99.90
10042;DHT22;5061;49.068;12.058;2023-02-01T20:55:06;4.30;99.90
10042;DHT22;5061;49.068;12.058;2023-02-01T20:58:28;4.30;99.90
10042;DHT22;5061;49.068;12.058;2023-02-01T21:01:48;4.30;99.90
10042;DHT22;5061;49.068;12.058;2023-02-01T21:05:12;4.30;99.90
10042;DHT22;5061;49.068;12.058;2023-02-01T21:08:33;4.30;99.90
10042;DHT22;5061;49.068;12.058;2023-02-01T21:11:54;4.30;99.90
10042;DHT22;5061;49.068;12.058;2023-02-01T21:15:15;4.40;99.90
10042;DHT22;5061;49.068;12.058;2023-02-01T21:18:36;4.30;99.90
10042;DHT22;5061;49.068;12.058;2023-02-01T21:21:57;4.30;99.90
10042;DHT22;5061;49.068;12.058;2023-02-01T21:25:17;4.30;99.90
10042;DHT22;5061;49.068;12.058;2023-02-01T21:28:38;4.30;99.90
10042;DHT22;5061;49.068;12.058;2023-02-01T21:31:59;4.30;99.90
10042;DHT22;5061;49.068;12.058;2023-02-01T21:35:19;4.20;99.90
10042;DHT22;5061;49.068;12.058;2023-02-01T21:38:40;4.20;99.90
10042;DHT22;5061;49.068;12.058;2023-02-01T21:42:00;4.20;99.90
10042;DHT22;5061;49.068;12.058;2023-02-01T21:45:33;4.20;99.90
10042;DHT22;5061;49.068;12.058;2023-02-01T21:48:54;4.10;99.90
10042;DHT22;5061;49.068;12.058;2023-02-01T21:52:16;4.10;99.90
10042;DHT22;5061;49.068;12.058;2023-02-01T21:55:37;4.00;99.90
10042;DHT22;5061;49.068;12.058;2023-02-01T21:58:57;4.00;99.90
10042;DHT22;5061;49.068;12.058;2023-02-01T22:02:24;4.00;99.90
10042;DHT22;5061;49.068;12.058;2023-02-01T22:05:48;3.90;99.90
10042;DHT22;5061;49.068;12.058;2023-02-01T22:09:21;3.90;99.90
10042;DHT22;5061;49.068;12.058;2023-02-01T22:12:42;3.90;99.90
10042;DHT22;5061;49.068;12.058;2023-02-01T22:16:03;3.90;99.90
10042;DHT22;5061;49.068;12.058;2023-02-01T22:19:23;3.90;99.90
10042;DHT22;5061;49.068;12.058;2023-02-01T22:22:46;4.00;99.90
10042;DHT22;5061;49.068;12.058;2023-02-01T22:26:10;3.90;99.90
10042;DHT22;5061;49.068;12.058;2023-02-01T22:29:31;3.90;99.90
10042;DHT22;5061;49.068;12.058;2023-02-01T22:32:53;3.90;99.90
10042;DHT22;5061;49.068;12.058;2023-02-01T22:36:15;4.00;99.90
10042;DHT22;5061;49.068;12.058;2023-02-01T22:39:39;4.00;99.90
10042;DHT22;5061;49.068;12.058;2023-02-01T22:43:00;4.00;99.90
10042;DHT22;5061;49.068;12.058;2023-02-01T22:46:23;3.90;99.90
10042;DHT22;5061;49.068;12.058;2023-02-01T22:49:47;3.90;99.90
10042;DHT22;5061;49.068;12.058;2023-02-01T22:53:07;3.90;99.90
10042;DHT22;5061;49.068;12.058;2023-02-01T22:56:31;3.90;99.90
10042;DHT22;5061;49.068;12.058;2023-02-01T22:59:51;3.80;99.90
10042;DHT22;5061;49.068;12.058;2023-02-01T23:03:12;3.80;99.90
10042;DHT22;5061;49.068;12.058;2023-02-01T23:06:33;3.80;99.90
10042;DHT22;5061;49.068;12.058;2023-02-01T23:09:54;3.80;99.90
10042;DHT22;5061;49.068;12.058;2023-02-01T23:13:14;3.80;99.90
10042;DHT22;5061;49.068;12.058;2023-02-01T23:16:35;3.90;99.90
10042;DHT22;5061;49.068;12.058;2023-02-01T23:19:56;3.80;99.90
10042;DHT22;5061;49.068;12.058;2023-02-01T23:23:17;3.90;99.90
10042;DHT22;5061;49.068;12.058;2023-02-01T23:26:38;3.90;99.90
10042;DHT22;5061;49.068;12.058;2023-02-01T23:29:58;4.00;99.90
10042;DHT22;5061;49.068;12.058;2023-02-01T23:33:23;4.00;99.90
10042;DHT22;5061;49.068;12.058;2023-02-01T23:36:44;4.00;99.90
10042;DHT22;5061;49.068;12.058;2023-02-01T23:40:05;4.10;99.90
10042;DHT22;5061;49.068;12.058;2023-02-01T23:43:27;4.10;99.90
10042;DHT22;5061;49.068;12.058;2023-02-01T23:47:06;4.10;99.90
10042;DHT22;5061;49.068;12.058;2023-02-01T23:50:27;4.10;99.90
10042;DHT22;5061;49.068;12.058;2023-02-01T23:53:48;4.10;99.90
10042;DHT22;5061;49.068;12.058;2023-02-01T23:57:08;4.10;99.90
